»·PEaware :: ASA525 KSNA-KPDX

ASA525 :: KSNA-KPDX

FLIGHT INFORMATION

Flight Status: Arrived
Operator:
Alaska Airlines
More flights by this operator :: More flights under this callsign
Pilot: Patricio R. (14780)
Aircraft: BOEING 737-800
(B738)
More flights by this aircraft type
Origin: KSNA John Wayne-Orange Co
United States
Destination: KPDX Portland Intl
United States
More flights between these airports :: More routes between these airports
Route: +HHERO3 EHF DUCKE LMT MOXEE TMBRS2
File this flight plan on PilotEdge
Remarks:
Altitude:
(Current/Filed)
34,000ft
Speed:
(Current/Filed)
452kts
Departed: 28-Sep-18 09:27 AM
Arrived: 28-Sep-18 11:27 AM
Distance/Time
Traveled:
747nm/1:59
Distance/Time
To Go:
Arrived

Flight Plot

Page will automatically refresh every two minutes.

Flight plan parsing failed; only flown route is shown


Map Options




Map Legend


Flown Route
Filed Route
Departure Airport
Arrival Airport
Navaid (VOR, NDB)
Fix

Horizontal Profiles

Position Reports

Time Latitude Longitude Heading Altitude Ground
Speed
28-Sep-18 09:12 33.678699 -117.862755 100 64ft 0kts
28-Sep-18 09:13 33.678699 -117.862755 100 64ft 0kts
28-Sep-18 09:14 33.678699 -117.862755 100 64ft 0kts
28-Sep-18 09:15 33.678699 -117.862755 100 64ft 0kts
28-Sep-18 09:16 33.678699 -117.862755 100 64ft 0kts
28-Sep-18 09:17 33.678699 -117.862755 100 64ft 0kts
28-Sep-18 09:18 33.678699 -117.862755 100 64ft 0kts
28-Sep-18 09:19 33.678699 -117.862755 100 64ft 0kts
28-Sep-18 09:20 33.678699 -117.862755 99 64ft 0kts
28-Sep-18 09:21 33.678742 -117.863050 99 64ft 2kts
28-Sep-18 09:22 33.678576 -117.863631 32 64ft 1kts
28-Sep-18 09:23 33.678501 -117.863679 26 64ft 0kts
28-Sep-18 09:24 33.678501 -117.863679 26 64ft 0kts
28-Sep-18 09:25 33.678501 -117.863679 26 64ft 0kts
28-Sep-18 09:26 33.679136 -117.863276 27 64ft 10kts
28-Sep-18 09:27 33.680566 -117.862889 309 64ft 7kts
28-Sep-18 09:28 33.681329 -117.865233 215 64ft 2kts
28-Sep-18 09:29 33.663381 -117.876621 207 310ft 163kts
28-Sep-18 09:30 33.618803 -117.891976 187 2343ft 185kts
28-Sep-18 09:31 33.563118 -117.906631 216 4170ft 230kts
28-Sep-18 09:32 33.515453 -117.962498 223 6636ft 273kts
28-Sep-18 09:33 33.463573 -118.034350 238 9514ft 290kts
28-Sep-18 09:34 33.422366 -118.123668 249 11961ft 323kts
28-Sep-18 09:35 33.426414 -118.231775 281 14749ft 338kts
28-Sep-18 09:36 33.455806 -118.339544 296 17311ft 351kts
28-Sep-18 09:37 33.503779 -118.443494 309 19613ft 366kts
28-Sep-18 09:38 33.599208 -118.477649 5 21736ft 382kts
28-Sep-18 09:39 33.706490 -118.463055 5 23666ft 394kts
28-Sep-18 09:40 33.816704 -118.459302 358 25453ft 403kts
28-Sep-18 09:41 33.929600 -118.459610 358 27103ft 412kts
28-Sep-18 09:42 34.044520 -118.465556 350 28630ft 419kts
28-Sep-18 09:43 34.159860 -118.483885 351 30184ft 420kts
28-Sep-18 09:44 34.274944 -118.501619 350 31605ft 415kts
28-Sep-18 09:45 34.388278 -118.519116 350 32903ft 411kts
28-Sep-18 09:46 34.501036 -118.536568 350 34009ft 410kts
28-Sep-18 09:47 34.617449 -118.554685 350 34027ft 436kts
28-Sep-18 09:48 34.740161 -118.573806 351 34032ft 451kts
28-Sep-18 09:49 34.863404 -118.593030 351 34092ft 450kts
28-Sep-18 09:50 34.986201 -118.617741 339 34119ft 449kts
28-Sep-18 09:51 35.090484 -118.694486 318 34090ft 446kts
28-Sep-18 09:52 35.184756 -118.790811 318 33974ft 444kts
28-Sep-18 09:53 35.279596 -118.887430 317 33928ft 445kts
28-Sep-18 09:54 35.375012 -118.984891 317 33926ft 449kts
28-Sep-18 09:55 35.471721 -119.081599 324 33920ft 455kts
28-Sep-18 09:56 35.589302 -119.140515 338 33929ft 461kts
28-Sep-18 09:57 35.710381 -119.190649 338 33927ft 460kts
28-Sep-18 09:58 35.830723 -119.240765 338 33928ft 461kts
28-Sep-18 09:59 35.951417 -119.291026 338 33932ft 460kts
28-Sep-18 10:00 36.072921 -119.341622 338 33931ft 461kts
28-Sep-18 10:01 36.193472 -119.391815 338 33923ft 460kts
28-Sep-18 10:02 36.314976 -119.442403 338 33924ft 461kts
28-Sep-18 10:03 36.436153 -119.492847 338 33924ft 460kts
28-Sep-18 10:04 36.557112 -119.543196 338 33921ft 461kts
28-Sep-18 10:05 36.678472 -119.593708 338 33917ft 460kts
28-Sep-18 10:06 36.799400 -119.644035 338 33916ft 461kts
28-Sep-18 10:07 36.920382 -119.694352 337 33937ft 464kts
28-Sep-18 10:08 37.043156 -119.745456 337 33930ft 465kts
28-Sep-18 10:09 37.165752 -119.796466 337 33929ft 468kts
28-Sep-18 10:10 37.288821 -119.847655 337 33934ft 468kts
28-Sep-18 10:11 37.412360 -119.899044 338 33935ft 468kts
28-Sep-18 10:12 37.535465 -119.950246 338 33929ft 468kts
28-Sep-18 10:13 37.657774 -120.001115 338 33918ft 468kts
28-Sep-18 10:14 37.781291 -120.052486 338 33919ft 468kts
28-Sep-18 10:15 37.904485 -120.103629 339 33948ft 469kts
28-Sep-18 10:16 38.025471 -120.148943 339 33956ft 469kts
28-Sep-18 10:17 38.149465 -120.196392 339 33969ft 468kts
28-Sep-18 10:18 38.274005 -120.244040 339 33954ft 469kts
28-Sep-18 10:19 38.398535 -120.291686 339 33952ft 469kts
28-Sep-18 10:20 38.523276 -120.339412 339 34073ft 469kts
28-Sep-18 10:21 38.646598 -120.386593 340 34097ft 469kts
28-Sep-18 10:22 38.771226 -120.434276 340 34059ft 469kts
28-Sep-18 10:23 38.896049 -120.482033 340 34024ft 469kts
28-Sep-18 10:24 39.020323 -120.529577 340 34130ft 464kts
28-Sep-18 10:25 39.142785 -120.576428 340 34160ft 464kts
28-Sep-18 10:26 39.266142 -120.623621 340 34161ft 464kts
28-Sep-18 10:27 39.389550 -120.670823 339 34164ft 464kts
28-Sep-18 10:28 39.512588 -120.717892 340 34165ft 464kts
28-Sep-18 10:29 39.636427 -120.765267 340 34150ft 465kts
28-Sep-18 10:30 39.759830 -120.812467 340 34102ft 463kts
28-Sep-18 10:31 39.883270 -120.859684 340 34068ft 464kts
28-Sep-18 10:32 40.006525 -120.906829 340 34092ft 464kts
28-Sep-18 10:33 40.129182 -120.953740 340 34088ft 464kts
28-Sep-18 10:34 40.253007 -121.001097 340 34090ft 466kts
28-Sep-18 10:35 40.377319 -121.048636 340 34089ft 469kts
28-Sep-18 10:36 40.502565 -121.096530 340 34091ft 472kts
28-Sep-18 10:37 40.629039 -121.144890 340 34091ft 475kts
28-Sep-18 10:38 40.755989 -121.193432 340 34093ft 479kts
28-Sep-18 10:39 40.883884 -121.242321 340 34070ft 480kts
28-Sep-18 10:40 40.990398 -121.283038 341 34053ft 478kts
28-Sep-18 10:41 41.114098 -121.330311 341 34085ft 465kts
28-Sep-18 10:42 41.258947 -121.385687 341 34098ft 466kts
28-Sep-18 10:43 41.362419 -121.425229 341 34087ft 465kts
28-Sep-18 10:44 41.486412 -121.472617 341 34071ft 466kts
28-Sep-18 10:45 41.610620 -121.520082 341 34071ft 466kts
28-Sep-18 10:46 41.735050 -121.567628 341 34071ft 466kts
28-Sep-18 10:47 41.859199 -121.615067 341 34072ft 466kts
28-Sep-18 10:48 41.983391 -121.662516 340 34078ft 466kts
28-Sep-18 10:49 42.107217 -121.709809 341 34076ft 465kts
28-Sep-18 10:50 42.228901 -121.764765 336 34072ft 463kts
28-Sep-18 10:51 42.349340 -121.824970 336 34072ft 463kts
28-Sep-18 10:52 42.470133 -121.885417 336 34073ft 464kts
28-Sep-18 10:53 42.590707 -121.946004 336 34073ft 464kts
28-Sep-18 10:54 42.711117 -122.006762 336 34073ft 464kts
28-Sep-18 10:55 42.831605 -122.067821 336 34074ft 463kts
28-Sep-18 10:56 42.951830 -122.128970 336 34037ft 457kts
28-Sep-18 10:57 43.068200 -122.188374 336 33950ft 441kts
28-Sep-18 10:58 43.182882 -122.247251 336 33952ft 445kts
28-Sep-18 10:59 43.294788 -122.304909 336 33934ft 444kts
28-Sep-18 11:00 43.410209 -122.364634 336 33920ft 444kts
28-Sep-18 11:01 43.525487 -122.424530 336 33915ft 444kts
28-Sep-18 11:02 43.640930 -122.484759 336 33915ft 445kts
28-Sep-18 11:03 43.752523 -122.543125 335 33912ft 417kts
28-Sep-18 11:04 43.861593 -122.600555 335 33914ft 422kts
28-Sep-18 11:05 43.952375 -122.648454 336 33031ft 418kts
28-Sep-18 11:06 44.063511 -122.707390 335 29445ft 438kts
28-Sep-18 11:07 44.177555 -122.748594 355 26561ft 435kts
28-Sep-18 11:08 44.295776 -122.739019 0 24100ft 418kts
28-Sep-18 11:09 44.408852 -122.727686 0 21772ft 400kts
28-Sep-18 11:10 44.517235 -122.716858 1 19567ft 383kts
28-Sep-18 11:11 44.621100 -122.706444 1 17500ft 368kts
28-Sep-18 11:12 44.720420 -122.696431 1 15610ft 353kts
28-Sep-18 11:13 44.816387 -122.686753 1 13749ft 341kts
28-Sep-18 11:14 44.909381 -122.677395 1 11963ft 331kts
28-Sep-18 11:15 44.998026 -122.668429 1 10690ft 310kts
28-Sep-18 11:16 45.081008 -122.660007 2 9466ft 287kts
28-Sep-18 11:17 45.158575 -122.652135 2 8324ft 279kts
28-Sep-18 11:18 45.234287 -122.644398 3 7512ft 261kts
28-Sep-18 11:19 45.300375 -122.598018 32 6589ft 272kts
28-Sep-18 11:20 45.362273 -122.541565 30 5523ft 253kts
28-Sep-18 11:21 45.414537 -122.494616 29 5240ft 200kts
28-Sep-18 11:22 45.432005 -122.418984 111 5153ft 229kts
28-Sep-18 11:23 45.432107 -122.342694 28 5030ft 236kts
28-Sep-18 11:24 45.490743 -122.378485 325 4315ft 234kts
28-Sep-18 11:25 45.539142 -122.431526 324 3101ft 198kts
28-Sep-18 11:26 45.550897 -122.498812 281 2067ft 170kts
28-Sep-18 11:27 45.567934 -122.552108 304 626ft 140kts
28-Sep-18 11:28 45.586151 -122.598322 300 37ft 90kts
28-Sep-18 11:29 45.589397 -122.604553 24 37ft 4kts
28-Sep-18 11:30 45.589172 -122.602682 88 37ft 7kts
28-Sep-18 11:31 45.590606 -122.601219 29 37ft 10kts
28-Sep-18 11:32 45.590667 -122.597495 119 37ft 11kts
28-Sep-18 11:33 45.589305 -122.594617 195 37ft 2kts
28-Sep-18 11:34 45.588860 -122.594806 197 37ft 0kts

Navigation Log

Ident Type
Flight plan parsing failed, navigation log unavailable